sensor_id;sensor_type;location;lat;lon;timestamp;pressure;altitude;pressure_sealevel;temperature;humidity
42067;BME280;27734;47.028;28.820;2023-07-29T00:00:13;99994.14;;;19.13;59.05
42067;BME280;27734;47.028;28.820;2023-07-29T00:03:05;99992.32;;;19.18;59.04
42067;BME280;27734;47.028;28.820;2023-07-29T00:05:36;99993.22;;;19.20;58.80
42067;BME280;27734;47.028;28.820;2023-07-29T00:08:08;99996.76;;;19.19;59.33
42067;BME280;27734;47.028;28.820;2023-07-29T00:10:39;99997.66;;;19.15;59.05
42067;BME280;27734;47.028;28.820;2023-07-29T00:13:11;99996.84;;;19.07;59.87
42067;BME280;27734;47.028;28.820;2023-07-29T00:15:42;99995.13;;;18.98;59.91
42067;BME280;27734;47.028;28.820;2023-07-29T00:18:14;100002.27;;;18.90;60.14
42067;BME280;27734;47.028;28.820;2023-07-29T00:20:45;99991.64;;;18.83;60.91
42067;BME280;27734;47.028;28.820;2023-07-29T00:23:18;99996.97;;;18.82;61.16
42067;BME280;27734;47.028;28.820;2023-07-29T00:25:49;99989.02;;;18.79;60.70
42067;BME280;27734;47.028;28.820;2023-07-29T00:28:21;99985.52;;;18.72;60.85
42067;BME280;27734;47.028;28.820;2023-07-29T00:30:52;99987.33;;;18.67;61.00
42067;BME280;27734;47.028;28.820;2023-07-29T00:33:23;99990.89;;;18.61;61.30
42067;BME280;27734;47.028;28.820;2023-07-29T00:35:56;99990.05;;;18.55;61.45
42067;BME280;27734;47.028;28.820;2023-07-29T00:38:31;99989.16;;;18.51;61.00
42067;BME280;27734;47.028;28.820;2023-07-29T00:41:03;99985.64;;;18.49;62.19
42067;BME280;27734;47.028;28.820;2023-07-29T00:43:34;99988.31;;;18.46;61.96
42067;BME280;27734;47.028;28.820;2023-07-29T00:46:06;99990.10;;;18.44;61.60
42067;BME280;27734;47.028;28.820;2023-07-29T00:48:39;99983.03;;;18.40;62.50
42067;BME280;27734;47.028;28.820;2023-07-29T00:51:11;99982.16;;;18.38;62.72
42067;BME280;27734;47.028;28.820;2023-07-29T00:53:42;99987.47;;;18.38;62.67
42067;BME280;27734;47.028;28.820;2023-07-29T00:56:14;99992.79;;;18.36;62.74
42067;BME280;27734;47.028;28.820;2023-07-29T00:58:47;99994.61;;;18.26;63.30
42067;BME280;27734;47.028;28.820;2023-07-29T01:01:18;99995.52;;;18.14;64.03
42067;BME280;27734;47.028;28.820;2023-07-29T01:03:50;99994.69;;;18.02;63.97
42067;BME280;27734;47.028;28.820;2023-07-29T01:06:26;100000.89;;;17.93;63.85
42067;BME280;27734;47.028;28.820;2023-07-29T01:09:04;99992.91;;;17.84;64.33
42067;BME280;27734;47.028;28.820;2023-07-29T01:11:44;99993.83;;;17.81;64.45
42067;BME280;27734;47.028;28.820;2023-07-29T01:14:25;99986.74;;;17.77;64.20
42067;BME280;27734;47.028;28.820;2023-07-29T01:17:03;99993.84;;;17.75;64.91
42067;BME280;27734;47.028;28.820;2023-07-29T01:19:48;99989.41;;;17.72;64.82
42067;BME280;27734;47.028;28.820;2023-07-29T01:22:25;99994.72;;;17.71;64.67
42067;BME280;27734;47.028;28.820;2023-07-29T01:24:57;100000.02;;;17.71;64.78
42067;BME280;27734;47.028;28.820;2023-07-29T01:27:28;99995.59;;;17.70;64.81
42067;BME280;27734;47.028;28.820;2023-07-29T01:30:00;99998.25;;;17.65;65.05
42067;BME280;27734;47.028;28.820;2023-07-29T01:32:37;100003.55;;;17.64;65.03
42067;BME280;27734;47.028;28.820;2023-07-29T01:35:17;99999.16;;;17.59;64.98
42067;BME280;27734;47.028;28.820;2023-07-29T01:37:53;100000.03;;;17.58;65.37
42067;BME280;27734;47.028;28.820;2023-07-29T01:40:27;99999.16;;;17.56;65.47
42067;BME280;27734;47.028;28.820;2023-07-29T01:43:00;99999.16;;;17.55;65.37
42067;BME280;27734;47.028;28.820;2023-07-29T01:45:32;99995.60;;;17.56;65.51
42067;BME280;27734;47.028;28.820;2023-07-29T01:48:07;99996.52;;;17.53;65.70
42067;BME280;27734;47.028;28.820;2023-07-29T01:50:39;100000.04;;;17.51;65.80
42067;BME280;27734;47.028;28.820;2023-07-29T01:53:13;100008.00;;;17.46;65.75
42067;BME280;27734;47.028;28.820;2023-07-29T01:55:45;100004.47;;;17.42;66.29
42067;BME280;27734;47.028;28.820;2023-07-29T01:58:16;100004.47;;;17.36;66.64
42067;BME280;27734;47.028;28.820;2023-07-29T02:00:50;99998.30;;;17.33;66.39
42067;BME280;27734;47.028;28.820;2023-07-29T02:03:21;99996.52;;;17.29;66.31
42067;BME280;27734;47.028;28.820;2023-07-29T02:05:53;100000.94;;;17.25;66.67
42067;BME280;27734;47.028;28.820;2023-07-29T02:08:24;100003.59;;;17.20;66.95
42067;BME280;27734;47.028;28.820;2023-07-29T02:10:55;100009.77;;;17.18;67.27
42067;BME280;27734;47.028;28.820;2023-07-29T02:13:26;100011.53;;;17.13;67.11
42067;BME280;27734;47.028;28.820;2023-07-29T02:15:58;100015.05;;;17.09;67.07
42067;BME280;27734;47.028;28.820;2023-07-29T02:18:29;100004.45;;;17.10;66.66
42067;BME280;27734;47.028;28.820;2023-07-29T02:21:00;100000.03;;;17.15;66.93
42067;BME280;27734;47.028;28.820;2023-07-29T02:23:33;99995.64;;;17.20;66.87
42067;BME280;27734;47.028;28.820;2023-07-29T02:26:04;100005.34;;;17.28;67.12
42067;BME280;27734;47.028;28.820;2023-07-29T02:28:35;100013.30;;;17.26;66.92
42067;BME280;27734;47.028;28.820;2023-07-29T02:31:16;100012.42;;;17.22;67.21
42067;BME280;27734;47.028;28.820;2023-07-29T02:33:48;100010.63;;;17.18;67.19
42067;BME280;27734;47.028;28.820;2023-07-29T02:36:20;100008.89;;;17.17;66.79
42067;BME280;27734;47.028;28.820;2023-07-29T02:38:51;100013.28;;;17.14;66.93
42067;BME280;27734;47.028;28.820;2023-07-29T02:41:23;100012.41;;;17.13;68.21
42067;BME280;27734;47.028;28.820;2023-07-29T02:43:54;100014.18;;;17.08;67.41
42067;BME280;27734;47.028;28.820;2023-07-29T02:46:25;100022.12;;;17.03;67.80
42067;BME280;27734;47.028;28.820;2023-07-29T02:48:57;100032.72;;;17.00;68.27
42067;BME280;27734;47.028;28.820;2023-07-29T02:51:29;100032.71;;;16.97;68.77
42067;BME280;27734;47.028;28.820;2023-07-29T02:54:00;100022.11;;;16.96;68.66
42067;BME280;27734;47.028;28.820;2023-07-29T02:56:32;100022.98;;;16.99;68.27
42067;BME280;27734;47.028;28.820;2023-07-29T02:59:03;100030.09;;;17.10;68.14
42067;BME280;27734;47.028;28.820;2023-07-29T03:01:35;100022.15;;;17.20;67.86
42067;BME280;27734;47.028;28.820;2023-07-29T03:04:06;100026.56;;;17.34;68.36
42067;BME280;27734;47.028;28.820;2023-07-29T03:06:38;100026.56;;;17.41;67.76
42067;BME280;27734;47.028;28.820;2023-07-29T03:09:09;100027.44;;;17.45;68.16
42067;BME280;27734;47.028;28.820;2023-07-29T03:11:41;100029.22;;;17.49;68.67
42067;BME280;27734;47.028;28.820;2023-07-29T03:14:12;100023.03;;;17.50;68.43
42067;BME280;27734;47.028;28.820;2023-07-29T03:16:43;100020.39;;;17.50;67.88
42067;BME280;27734;47.028;28.820;2023-07-29T03:19:15;100017.73;;;17.53;67.76
42067;BME280;27734;47.028;28.820;2023-07-29T03:21:46;100016.83;;;17.59;67.73
42067;BME280;27734;47.028;28.820;2023-07-29T03:24:18;100015.07;;;17.69;67.82
42067;BME280;27734;47.028;28.820;2023-07-29T03:26:49;100017.72;;;17.75;67.89
42067;BME280;27734;47.028;28.820;2023-07-29T03:29:20;100027.42;;;17.81;67.59
42067;BME280;27734;47.028;28.820;2023-07-29T03:31:51;100038.03;;;17.81;67.88
42067;BME280;27734;47.028;28.820;2023-07-29T03:34:23;100033.63;;;17.78;67.91
42067;BME280;27734;47.028;28.820;2023-07-29T03:36:54;100034.51;;;17.75;68.00
42067;BME280;27734;47.028;28.820;2023-07-29T03:39:25;100031.86;;;17.77;68.21
42067;BME280;27734;47.028;28.820;2023-07-29T03:41:56;100041.59;;;17.78;68.30
42067;BME280;27734;47.028;28.820;2023-07-29T03:44:28;100041.59;;;17.76;68.02
42067;BME280;27734;47.028;28.820;2023-07-29T03:47:00;100047.77;;;17.82;67.71
42067;BME280;27734;47.028;28.820;2023-07-29T03:49:32;100038.03;;;17.84;67.74
42067;BME280;27734;47.028;28.820;2023-07-29T03:52:04;100032.72;;;17.87;68.13
42067;BME280;27734;47.028;28.820;2023-07-29T03:54:37;100046.02;;;17.88;67.72
42067;BME280;27734;47.028;28.820;2023-07-29T03:57:08;100044.24;;;17.86;67.99
42067;BME280;27734;47.028;28.820;2023-07-29T03:59:39;100043.34;;;17.87;68.02
42067;BME280;27734;47.028;28.820;2023-07-29T04:02:14;100050.42;;;17.88;67.92
42067;BME280;27734;47.028;28.820;2023-07-29T04:04:46;100041.61;;;17.90;67.61
42067;BME280;27734;47.028;28.820;2023-07-29T04:07:18;100046.89;;;17.92;68.22
42067;BME280;27734;47.028;28.820;2023-07-29T04:09:49;100045.14;;;17.94;68.15
42067;BME280;27734;47.028;28.820;2023-07-29T04:12:20;100042.48;;;17.95;67.94
42067;BME280;27734;47.028;28.820;2023-07-29T04:14:52;100043.34;;;17.99;68.38
42067;BME280;27734;47.028;28.820;2023-07-29T04:17:23;100045.13;;;18.02;68.08
42067;BME280;27734;47.028;28.820;2023-07-29T04:19:55;100048.65;;;18.05;68.22
42067;BME280;27734;47.028;28.820;2023-07-29T04:22:28;100057.48;;;18.06;68.22
42067;BME280;27734;47.028;28.820;2023-07-29T04:25:00;100053.95;;;18.07;68.32
42067;BME280;27734;47.028;28.820;2023-07-29T04:27:32;100059.26;;;18.10;68.56
42067;BME280;27734;47.028;28.820;2023-07-29T04:30:04;100055.72;;;18.16;68.31
42067;BME280;27734;47.028;28.820;2023-07-29T04:32:35;100056.58;;;18.19;68.41
42067;BME280;27734;47.028;28.820;2023-07-29T04:35:10;100063.66;;;18.25;68.26
42067;BME280;27734;47.028;28.820;2023-07-29T04:37:42;100069.83;;;18.33;68.34
42067;BME280;27734;47.028;28.820;2023-07-29T04:40:14;100070.68;;;18.40;68.44
42067;BME280;27734;47.028;28.820;2023-07-29T04:42:45;100081.29;;;18.46;68.74
42067;BME280;27734;47.028;28.820;2023-07-29T04:45:17;100073.30;;;18.52;68.47
42067;BME280;27734;47.028;28.820;2023-07-29T04:47:48;100072.41;;;18.58;68.39
42067;BME280;27734;47.028;28.820;2023-07-29T04:50:19;100078.57;;;18.63;68.02
42067;BME280;27734;47.028;28.820;2023-07-29T04:52:51;100076.78;;;18.66;68.08
42067;BME280;27734;47.028;28.820;2023-07-29T04:55:23;100082.06;;;18.73;68.40
42067;BME280;27734;47.028;28.820;2023-07-29T04:57:54;100084.70;;;18.79;68.09
42067;BME280;27734;47.028;28.820;2023-07-29T05:00:25;100078.52;;;18.84;67.64
42067;BME280;27734;47.028;28.820;2023-07-29T05:02:57;100083.80;;;18.91;67.76
42067;BME280;27734;47.028;28.820;2023-07-29T05:05:28;100081.98;;;18.99;67.60
42067;BME280;27734;47.028;28.820;2023-07-29T05:08:02;100087.24;;;19.08;68.11
42067;BME280;27734;47.028;28.820;2023-07-29T05:10:34;100085.41;;;19.16;67.95
42067;BME280;27734;47.028;28.820;2023-07-29T05:13:05;100084.48;;;19.25;67.74
42067;BME280;27734;47.028;28.820;2023-07-29T05:15:38;100084.42;;;19.34;67.52
42067;BME280;27734;47.028;28.820;2023-07-29T05:18:09;100082.59;;;19.41;67.33
42067;BME280;27734;47.028;28.820;2023-07-29T05:20:40;100086.12;;;19.48;66.88
42067;BME280;27734;47.028;28.820;2023-07-29T05:23:11;100086.03;;;19.54;67.12
42067;BME280;27734;47.028;28.820;2023-07-29T05:25:43;100081.55;;;19.64;67.14
42067;BME280;27734;47.028;28.820;2023-07-29T05:28:14;100086.80;;;19.73;67.03
42067;BME280;27734;47.028;28.820;2023-07-29T05:30:46;100088.52;;;19.82;66.63
42067;BME280;27734;47.028;28.820;2023-07-29T05:33:17;100089.34;;;19.91;66.40
42067;BME280;27734;47.028;28.820;2023-07-29T05:35:49;100091.91;;;20.01;66.19
42067;BME280;27734;47.028;28.820;2023-07-29T05:38:20;100092.70;;;20.10;66.60
42067;BME280;27734;47.028;28.820;2023-07-29T05:40:51;100089.94;;;20.20;66.19
42067;BME280;27734;47.028;28.820;2023-07-29T05:43:23;100100.50;;;20.29;65.85
42067;BME280;27734;47.028;28.820;2023-07-29T05:45:55;100099.48;;;20.39;65.07
42067;BME280;27734;47.028;28.820;2023-07-29T05:48:27;100096.73;;;20.47;65.97
42067;BME280;27734;47.028;28.820;2023-07-29T05:50:58;100095.77;;;20.56;65.08
42067;BME280;27734;47.028;28.820;2023-07-29T05:53:29;100103.67;;;20.67;64.92
42067;BME280;27734;47.028;28.820;2023-07-29T05:56:01;100100.89;;;20.76;64.51
42067;BME280;27734;47.028;28.820;2023-07-29T05:58:32;100094.52;;;20.86;64.51
42067;BME280;27734;47.028;28.820;2023-07-29T06:01:03;100094.37;;;20.97;63.86
42067;BME280;27734;47.028;28.820;2023-07-29T06:03:35;100094.23;;;21.08;63.89
42067;BME280;27734;47.028;28.820;2023-07-29T06:06:06;100095.90;;;21.16;63.74
42067;BME280;27734;47.028;28.820;2023-07-29T06:08:37;100095.77;;;21.26;63.62
42067;BME280;27734;47.028;28.820;2023-07-29T06:11:08;100089.37;;;21.36;62.25
42067;BME280;27734;47.028;28.820;2023-07-29T06:13:40;100090.13;;;21.46;62.37
42067;BME280;27734;47.028;28.820;2023-07-29T06:16:11;100086.42;;;21.56;62.19
42067;BME280;27734;47.028;28.820;2023-07-29T06:18:43;100091.62;;;21.65;61.59
42067;BME280;27734;47.028;28.820;2023-07-29T06:21:14;100093.24;;;21.76;61.63
42067;BME280;27734;47.028;28.820;2023-07-29T06:23:47;100089.52;;;21.84;61.94
42067;BME280;27734;47.028;28.820;2023-07-29T06:26:18;100092.95;;;21.93;61.28
42067;BME280;27734;47.028;28.820;2023-07-29T06:28:49;100090.99;;;22.02;60.57
42067;BME280;27734;47.028;28.820;2023-07-29T06:31:21;100094.40;;;22.11;60.81
42067;BME280;27734;47.028;28.820;2023-07-29T06:33:52;100096.88;;;22.21;60.45
42067;BME280;27734;47.028;28.820;2023-07-29T06:36:24;100096.73;;;22.31;60.11
42067;BME280;27734;47.028;28.820;2023-07-29T06:38:55;100092.02;;;22.43;60.57
42067;BME280;27734;47.028;28.820;2023-07-29T06:41:27;100100.77;;;22.53;59.79
42067;BME280;27734;47.028;28.820;2023-07-29T06:43:58;100098.78;;;22.63;60.34
42067;BME280;27734;47.028;28.820;2023-07-29T06:46:29;100098.53;;;22.75;60.06
42067;BME280;27734;47.028;28.820;2023-07-29T06:49:00;100089.25;;;22.92;59.19
42067;BME280;27734;47.028;28.820;2023-07-29T06:51:32;100089.84;;;23.06;58.43
42067;BME280;27734;47.028;28.820;2023-07-29T06:54:05;100091.31;;;23.21;58.39
42067;BME280;27734;47.028;28.820;2023-07-29T06:56:39;100093.56;;;23.40;57.58
42067;BME280;27734;47.028;28.820;2023-07-29T06:59:10;100095.91;;;23.54;57.62
42067;BME280;27734;47.028;28.820;2023-07-29T07:01:41;100088.34;;;23.71;56.86
42067;BME280;27734;47.028;28.820;2023-07-29T07:04:13;100096.81;;;23.90;55.89
42067;BME280;27734;47.028;28.820;2023-07-29T07:06:44;100084.70;;;24.10;55.29
42067;BME280;27734;47.028;28.820;2023-07-29T07:09:15;100087.67;;;24.32;55.09
42067;BME280;27734;47.028;28.820;2023-07-29T07:11:46;100088.89;;;24.53;54.68
42067;BME280;27734;47.028;28.820;2023-07-29T07:14:18;100084.98;;;24.65;54.75
42067;BME280;27734;47.028;28.820;2023-07-29T07:16:49;100086.31;;;24.81;54.31
42067;BME280;27734;47.028;28.820;2023-07-29T07:19:20;100085.81;;;24.98;54.03
42067;BME280;27734;47.028;28.820;2023-07-29T07:21:51;100081.75;;;25.13;54.30
42067;BME280;27734;47.028;28.820;2023-07-29T07:24:23;100080.34;;;25.31;54.33
42067;BME280;27734;47.028;28.820;2023-07-29T07:26:54;100079.70;;;25.51;53.10
42067;BME280;27734;47.028;28.820;2023-07-29T07:29:25;100075.61;;;25.66;53.64
42067;BME280;27734;47.028;28.820;2023-07-29T07:31:58;100077.19;;;26.00;51.60
42067;BME280;27734;47.028;28.820;2023-07-29T07:34:29;100069.80;;;26.32;50.98
42067;BME280;27734;47.028;28.820;2023-07-29T07:37:01;100074.86;;;26.65;51.11
42067;BME280;27734;47.028;28.820;2023-07-29T07:39:34;100070.87;;;26.99;50.76
42067;BME280;27734;47.028;28.820;2023-07-29T07:42:06;100068.30;;;27.19;49.63
42067;BME280;27734;47.028;28.820;2023-07-29T07:44:37;100064.27;;;27.30;48.18
42067;BME280;27734;47.028;28.820;2023-07-29T07:47:08;100061.99;;;27.65;48.66
42067;BME280;27734;47.028;28.820;2023-07-29T07:49:40;100060.25;;;27.84;48.45
42067;BME280;27734;47.028;28.820;2023-07-29T07:52:11;100058.36;;;28.08;47.32
42067;BME280;27734;47.028;28.820;2023-07-29T07:54:42;100056.30;;;28.34;47.68
42067;BME280;27734;47.028;28.820;2023-07-29T07:57:16;100059.92;;;28.54;47.69
42067;BME280;27734;47.028;28.820;2023-07-29T07:59:47;100047.88;;;28.81;46.75
42067;BME280;27734;47.028;28.820;2023-07-29T08:02:19;100045.52;;;29.12;44.61
42067;BME280;27734;47.028;28.820;2023-07-29T08:04:50;100044.35;;;29.36;42.63
42067;BME280;27734;47.028;28.820;2023-07-29T08:07:21;100038.81;;;29.57;42.97
42067;BME280;27734;47.028;28.820;2023-07-29T08:09:53;100035.88;;;29.62;43.97
42067;BME280;27734;47.028;28.820;2023-07-29T08:12:27;100033.80;;;29.67;43.02
42067;BME280;27734;47.028;28.820;2023-07-29T08:14:58;100030.94;;;29.70;41.69
42067;BME280;27734;47.028;28.820;2023-07-29T08:17:35;100024.20;;;29.61;41.95
42067;BME280;27734;47.028;28.820;2023-07-29T08:20:10;100025.14;;;29.60;41.59
42067;BME280;27734;47.028;28.820;2023-07-29T08:22:45;100018.64;;;29.64;41.15
42067;BME280;27734;47.028;28.820;2023-07-29T08:25:17;100024.75;;;29.68;40.89
42067;BME280;27734;47.028;28.820;2023-07-29T08:27:48;100023.66;;;29.72;40.78
42067;BME280;27734;47.028;28.820;2023-07-29T08:30:20;100025.83;;;29.83;40.80
42067;BME280;27734;47.028;28.820;2023-07-29T08:32:51;100025.20;;;29.95;40.18
42067;BME280;27734;47.028;28.820;2023-07-29T08:35:26;100014.52;;;30.09;40.33
42067;BME280;27734;47.028;28.820;2023-07-29T08:37:57;100018.38;;;30.21;40.43
42067;BME280;27734;47.028;28.820;2023-07-29T08:40:30;100016.48;;;30.23;39.56
42067;BME280;27734;47.028;28.820;2023-07-29T08:43:05;100010.66;;;30.31;39.84
42067;BME280;27734;47.028;28.820;2023-07-29T08:45:37;100021.31;;;30.34;38.87
42067;BME280;27734;47.028;28.820;2023-07-29T08:48:11;100010.33;;;30.37;38.44
42067;BME280;27734;47.028;28.820;2023-07-29T08:50:45;100018.61;;;30.34;38.59
42067;BME280;27734;47.028;28.820;2023-07-29T08:53:19;100012.13;;;30.37;38.46
42067;BME280;27734;47.028;28.820;2023-07-29T08:55:51;100011.27;;;30.36;38.19
42067;BME280;27734;47.028;28.820;2023-07-29T08:58:23;100013.70;;;30.25;38.09
42067;BME280;27734;47.028;28.820;2023-07-29T09:00:55;100013.77;;;30.23;38.09
42067;BME280;27734;47.028;28.820;2023-07-29T09:03:28;100011.48;;;30.16;37.33
42067;BME280;27734;47.028;28.820;2023-07-29T09:05:59;100007.63;;;30.20;37.68
42067;BME280;27734;47.028;28.820;2023-07-29T09:08:35;100003.66;;;30.27;37.57
42067;BME280;27734;47.028;28.820;2023-07-29T09:11:09;99997.38;;;30.26;37.54
42067;BME280;27734;47.028;28.820;2023-07-29T09:13:41;100003.56;;;30.28;36.88
42067;BME280;27734;47.028;28.820;2023-07-29T09:16:15;100008.98;;;30.28;36.41
42067;BME280;27734;47.028;28.820;2023-07-29T09:18:48;99999.83;;;30.31;36.43
42067;BME280;27734;47.028;28.820;2023-07-29T09:21:24;100005.55;;;30.42;36.37
42067;BME280;27734;47.028;28.820;2023-07-29T09:23:56;100006.64;;;30.38;36.39
42067;BME280;27734;47.028;28.820;2023-07-29T09:26:28;100004.18;;;30.34;35.77
42067;BME280;27734;47.028;28.820;2023-07-29T09:29:01;99998.56;;;30.21;35.73
42067;BME280;27734;47.028;28.820;2023-07-29T09:31:33;99999.39;;;30.05;35.42
42067;BME280;27734;47.028;28.820;2023-07-29T09:34:05;100006.34;;;29.93;35.24
42067;BME280;27734;47.028;28.820;2023-07-29T09:36:36;100000.04;;;29.93;35.84
42067;BME280;27734;47.028;28.820;2023-07-29T09:39:12;99995.20;;;30.00;35.78
42067;BME280;27734;47.028;28.820;2023-07-29T09:41:48;99995.66;;;30.08;35.53
42067;BME280;27734;47.028;28.820;2023-07-29T09:44:20;99999.06;;;30.11;34.97
42067;BME280;27734;47.028;28.820;2023-07-29T09:46:51;99995.01;;;30.03;35.11
42067;BME280;27734;47.028;28.820;2023-07-29T09:49:23;100000.04;;;29.93;35.19
42067;BME280;27734;47.028;28.820;2023-07-29T09:51:56;99997.09;;;29.98;35.09
42067;BME280;27734;47.028;28.820;2023-07-29T09:54:29;99993.90;;;30.07;35.23
42067;BME280;27734;47.028;28.820;2023-07-29T09:57:00;100002.63;;;30.12;35.09
42067;BME280;27734;47.028;28.820;2023-07-29T09:59:35;100005.09;;;30.17;34.96
42067;BME280;27734;47.028;28.820;2023-07-29T10:02:13;100000.50;;;30.19;34.77
42067;BME280;27734;47.028;28.820;2023-07-29T10:04:45;99993.66;;;30.11;34.98
42067;BME280;27734;47.028;28.820;2023-07-29T10:07:17;99990.62;;;30.18;35.20
42067;BME280;27734;47.028;28.820;2023-07-29T10:09:50;99994.75;;;30.25;34.82
42067;BME280;27734;47.028;28.820;2023-07-29T10:12:23;99999.58;;;30.36;34.95
42067;BME280;27734;47.028;28.820;2023-07-29T10:14:56;99987.64;;;30.40;34.58
42067;BME280;27734;47.028;28.820;2023-07-29T10:17:30;99987.69;;;30.38;34.80
42067;BME280;27734;47.028;28.820;2023-07-29T10:20:06;99981.37;;;30.39;34.71
42067;BME280;27734;47.028;28.820;2023-07-29T10:22:40;99992.02;;;30.42;34.60
42067;BME280;27734;47.028;28.820;2023-07-29T10:25:15;99996.88;;;30.36;34.17
42067;BME280;27734;47.028;28.820;2023-07-29T10:27:49;99983.27;;;30.37;34.44
42067;BME280;27734;47.028;28.820;2023-07-29T10:30:23;99986.78;;;30.39;34.54
42067;BME280;27734;47.028;28.820;2023-07-29T10:32:55;99987.56;;;30.41;34.06
42067;BME280;27734;47.028;28.820;2023-07-29T10:35:29;99984.69;;;30.44;34.01
42067;BME280;27734;47.028;28.820;2023-07-29T10:38:00;99985.07;;;30.54;34.15
42067;BME280;27734;47.028;28.820;2023-07-29T10:40:47;99977.21;;;30.65;33.86
42067;BME280;27734;47.028;28.820;2023-07-29T10:43:26;99970.56;;;30.71;33.73
42067;BME280;27734;47.028;28.820;2023-07-29T10:46:20;99966.55;;;30.78;33.70
42067;BME280;27734;47.028;28.820;2023-07-29T10:48:58;99973.55;;;30.82;33.58
42067;BME280;27734;47.028;28.820;2023-07-29T10:51:30;99972.85;;;30.95;33.75
42067;BME280;27734;47.028;28.820;2023-07-29T10:54:02;99980.87;;;30.80;33.65
42067;BME280;27734;47.028;28.820;2023-07-29T10:56:34;99974.59;;;30.64;33.71
42067;BME280;27734;47.028;28.820;2023-07-29T10:59:34;99981.97;;;30.44;33.11
42067;BME280;27734;47.028;28.820;2023-07-29T11:02:15;99979.38;;;30.25;33.15
42067;BME280;27734;47.028;28.820;2023-07-29T11:04:51;99985.20;;;30.18;33.35
42067;BME280;27734;47.028;28.820;2023-07-29T11:07:27;99975.91;;;30.06;33.29
42067;BME280;27734;47.028;28.820;2023-07-29T11:10:00;99978.08;;;29.99;33.26
42067;BME280;27734;47.028;28.820;2023-07-29T11:12:40;99980.08;;;29.96;33.28
42067;BME280;27734;47.028;28.820;2023-07-29T11:15:20;99973.89;;;29.93;33.64
42067;BME280;27734;47.028;28.820;2023-07-29T11:17:53;99970.78;;;30.01;33.59
42067;BME280;27734;47.028;28.820;2023-07-29T11:20:24;99972.09;;;30.10;33.79
42067;BME280;27734;47.028;28.820;2023-07-29T11:22:57;99966.93;;;30.05;33.90
42067;BME280;27734;47.028;28.820;2023-07-29T11:25:30;99970.78;;;30.01;33.92
42067;BME280;27734;47.028;28.820;2023-07-29T11:28:03;99964.06;;;30.08;34.07
42067;BME280;27734;47.028;28.820;2023-07-29T11:30:36;99967.38;;;30.14;34.00
42067;BME280;27734;47.028;28.820;2023-07-29T11:33:09;99970.65;;;30.20;33.91
42067;BME280;27734;47.028;28.820;2023-07-29T11:35:41;99966.62;;;30.27;33.99
42067;BME280;27734;47.028;28.820;2023-07-29T11:38:16;99961.78;;;30.34;33.64
42067;BME280;27734;47.028;28.820;2023-07-29T11:41:00;99966.89;;;30.40;33.45
42067;BME280;27734;47.028;28.820;2023-07-29T11:43:36;99960.58;;;30.40;33.58
42067;BME280;27734;47.028;28.820;2023-07-29T11:46:07;99961.61;;;30.37;33.55
42067;BME280;27734;47.028;28.820;2023-07-29T11:48:38;99963.42;;;30.37;33.46
42067;BME280;27734;47.028;28.820;2023-07-29T11:51:09;99969.59;;;30.40;33.46
42067;BME280;27734;47.028;28.820;2023-07-29T11:53:41;99952.20;;;30.44;33.39
42067;BME280;27734;47.028;28.820;2023-07-29T11:56:13;99958.86;;;30.55;33.56
42067;BME280;27734;47.028;28.820;2023-07-29T11:58:45;99954.66;;;30.65;33.71
42067;BME280;27734;47.028;28.820;2023-07-29T12:01:17;99956.41;;;30.66;33.28
42067;BME280;27734;47.028;28.820;2023-07-29T12:03:48;99959.20;;;30.64;33.26
42067;BME280;27734;47.028;28.820;2023-07-29T12:06:20;99956.77;;;30.60;33.08
42067;BME280;27734;47.028;28.820;2023-07-29T12:08:52;99948.47;;;30.63;33.27
42067;BME280;27734;47.028;28.820;2023-07-29T12:11:23;99950.91;;;30.68;33.31
42067;BME280;27734;47.028;28.820;2023-07-29T12:13:56;99949.59;;;30.59;33.12
42067;BME280;27734;47.028;28.820;2023-07-29T12:16:27;99945.59;;;30.50;33.19
42067;BME280;27734;47.028;28.820;2023-07-29T12:19:05;99943.13;;;30.45;33.37
42067;BME280;27734;47.028;28.820;2023-07-29T12:21:37;99946.45;;;30.51;33.31
42067;BME280;27734;47.028;28.820;2023-07-29T12:24:08;99942.61;;;30.39;33.41
42067;BME280;27734;47.028;28.820;2023-07-29T12:26:39;99945.38;;;30.37;33.57
42067;BME280;27734;47.028;28.820;2023-07-29T12:29:15;99946.96;;;30.41;33.35
42067;BME280;27734;47.028;28.820;2023-07-29T12:31:46;99944.64;;;30.51;33.61
42067;BME280;27734;47.028;28.820;2023-07-29T12:34:21;99945.50;;;30.52;33.65
42067;BME280;27734;47.028;28.820;2023-07-29T12:36:53;99943.48;;;30.55;33.64
42067;BME280;27734;47.028;28.820;2023-07-29T12:39:26;99956.77;;;30.60;33.40
42067;BME280;27734;47.028;28.820;2023-07-29T12:41:59;99951.17;;;30.63;33.35
42067;BME280;27734;47.028;28.820;2023-07-29T12:44:31;99947.34;;;30.67;33.43
42067;BME280;27734;47.028;28.820;2023-07-29T12:47:05;99937.29;;;30.69;33.43
42067;BME280;27734;47.028;28.820;2023-07-29T12:49:38;99942.10;;;30.64;33.51
42067;BME280;27734;47.028;28.820;2023-07-29T12:52:09;99942.88;;;30.50;33.35
42067;BME280;27734;47.028;28.820;2023-07-29T12:54:41;99944.64;;;30.51;33.38
42067;BME280;27734;47.028;28.820;2023-07-29T12:57:14;99944.55;;;30.53;33.49
42067;BME280;27734;47.028;28.820;2023-07-29T12:59:45;99933.26;;;30.44;33.40
42067;BME280;27734;47.028;28.820;2023-07-29T13:02:16;99941.20;;;30.47;33.36
42067;BME280;27734;47.028;28.820;2023-07-29T13:04:47;99939.83;;;30.56;33.45
42067;BME280;27734;47.028;28.820;2023-07-29T13:07:18;99937.81;;;30.60;33.27
42067;BME280;27734;47.028;28.820;2023-07-29T13:09:50;99937.72;;;30.61;33.32